M I D A S
Marine Information and Data Acquisition System
Tripno 676 of the Zeeleeuw from 2004-03-26 07:15:52 to 2004-03-26 16:29:29
Back to CruiseResearch ActivitiesStationsMapUnderway DataData graphs

EquipmentUnitsComments
TimeDGPSUTC
LatitudeDGPSDM.mWGS84
LongitudeDGPSDM.mWGS84
SpeedMeteo Stationm/sRelative wind speed
DirectionMeteo StationdegRelative wind direction
TemperatureMeteo Stationdeg CelciusAir temperature
PressureMeteo StationPaAtmospheric pressure
HumidityMeteo Station%Relative humidity
Missing or incorrect values are displayed as -999
Metereological data collected by the RV Zeeleeuw from 2004-03-26 07:15:52 to 2004-03-26 16:29:29
                                                                                    Next 1000 lines
Time Latitude Longitude Speed Direction Temperature Pressure Humidity
2004-03-26 07:16:02 51°13.594 2°56.099 3.3 294 4.5 102290 66
2004-03-26 07:16:07 51°13.594 2°56.099 3 303 4.5 102290 66
2004-03-26 07:16:12 51°13.594 2°56.099 2.9 303 4.5 102290 66
2004-03-26 07:16:17 51°13.593 2°56.099 5.7 296 4.5 102290 66
2004-03-26 07:16:22 51°13.593 2°56.099 4.1 273 4.5 102290 66
2004-03-26 07:16:27 51°13.593 2°56.099 4.6 275 4.5 102290 66
2004-03-26 07:16:32 51°13.593 2°56.098 3.6 282 4.5 102290 66
2004-03-26 07:16:37 51°13.593 2°56.096 4.1 295 4.5 102290 66
2004-03-26 07:16:42 51°13.594 2°56.094 3.8 285 4.5 102290 66
2004-03-26 07:16:47 51°13.595 2°56.09 4.2 286 4.5 102290 66
2004-03-26 07:16:52 51°13.596 2°56.085 4.2 280 4.5 102290 66
2004-03-26 07:16:57 51°13.597 2°56.08 5.2 276 4.5 102290 66
2004-03-26 07:17:02 51°13.598 2°56.075 5.6 286 4.5 102290 66
2004-03-26 07:17:07 51°13.6 2°56.068 5.7 281 4.5 102290 66
2004-03-26 07:17:12 51°13.602 2°56.061 5.1 287 4.5 102290 66
2004-03-26 07:17:17 51°13.605 2°56.054 5.2 266 4.5 102290 66
2004-03-26 07:17:22 51°13.607 2°56.046 2.9 256 4.5 102290 66
2004-03-26 07:17:27 51°13.61 2°56.038 2.5 225 4.5 102290 66
2004-03-26 07:17:32 51°13.612 2°56.029 3.4 228 4.4 102300 66
2004-03-26 07:17:37 51°13.615 2°56.02 3.9 242 4.4 102300 66
2004-03-26 07:17:42 51°13.618 2°56.011 3.2 206 4.4 102300 66
2004-03-26 07:17:47 51°13.621 2°56.002 3.9 239 4.4 102300 66
2004-03-26 07:17:52 51°13.625 2°55.992 3 255 4.4 102290 66
2004-03-26 07:17:57 51°13.628 2°55.982 3.3 228 4.4 102290 66
2004-03-26 07:18:02 51°13.631 2°55.971 4.4 233 4.5 102290 66
2004-03-26 07:18:07 51°13.634 2°55.961 3.2 239 4.5 102290 66
2004-03-26 07:18:12 51°13.638 2°55.95 3.6 210 4.4 102290 66
2004-03-26 07:18:17 51°13.641 2°55.94 3.9 239 4.4 102290 66
2004-03-26 07:18:22 51°13.644 2°55.929 3.9 240 4.4 102290 66
2004-03-26 07:18:27 51°13.647 2°55.918 4.8 227 4.4 102290 66
2004-03-26 07:18:32 51°13.651 2°55.908 4.5 230 4.4 102300 66
2004-03-26 07:18:37 51°13.654 2°55.897 3.9 252 4.4 102300 66
2004-03-26 07:18:42 51°13.657 2°55.886 3.9 260 4.4 102290 66
2004-03-26 07:18:47 51°13.66 2°55.875 2.6 253 4.4 102290 66
2004-03-26 07:18:52 51°13.664 2°55.864 3.5 245 4.4 102290 66
2004-03-26 07:18:57 51°13.667 2°55.854 3.9 262 4.4 102290 66
2004-03-26 07:19:02 51°13.67 2°55.843 6.1 264 4.4 102300 66
2004-03-26 07:19:07 51°13.672 2°55.832 5 266 4.4 102300 66
2004-03-26 07:19:12 51°13.675 2°55.821 4.3 257 4.4 102300 66
2004-03-26 07:19:17 51°13.677 2°55.811 2.8 255 4.4 102300 66
2004-03-26 07:19:22 51°13.68 2°55.8 3.4 247 4.3 102300 65
2004-03-26 07:19:27 51°13.682 2°55.791 2.7 239 4.3 102300 65
2004-03-26 07:19:32 51°13.684 2°55.782 4.8 233 4.3 102300 65
2004-03-26 07:19:37 51°13.685 2°55.775 4.1 271 4.3 102300 65
2004-03-26 07:19:42 51°13.687 2°55.769 3.6 274 4.3 102290 65
2004-03-26 07:19:47 51°13.687 2°55.765 3.8 293 4.3 102290 65
2004-03-26 07:19:52 51°13.688 2°55.763 3.7 291 4.3 102290 65
2004-03-26 07:19:57 51°13.689 2°55.762 4 293 4.3 102290 65
2004-03-26 07:20:02 51°13.689 2°55.763 5.4 324 4.3 102300 65
2004-03-26 07:20:07 51°13.69 2°55.765 4.2 327 4.3 102300 65
2004-03-26 07:20:12 51°13.691 2°55.766 5.2 325 4.3 102300 65
2004-03-26 07:20:17 51°13.692 2°55.767 4.2 228 4.3 102300 65
2004-03-26 07:20:22 51°13.692 2°55.767 3.3 333 4.3 102290 65
2004-03-26 07:20:27 51°13.692 2°55.765 4.1 320 4.3 102290 65
2004-03-26 07:20:32 51°13.691 2°55.763 3.8 309 4.3 102290 65
2004-03-26 07:20:37 51°13.69 2°55.76 6.6 22 4.3 102290 65
2004-03-26 07:20:42 51°13.689 2°55.756 3.6 335 4.3 102300 65
2004-03-26 07:20:47 51°13.688 2°55.753 3.1 353 4.3 102300 65
2004-03-26 07:20:52 51°13.687 2°55.749 3.8 356 4.3 102290 65
2004-03-26 07:20:57 51°13.686 2°55.747 3.6 342 4.3 102290 65
2004-03-26 07:21:02 51°13.686 2°55.745 3.4 346 4.3 102300 65
2004-03-26 07:21:07 51°13.686 2°55.744 3.9 359 4.3 102300 65
2004-03-26 07:21:12 51°13.687 2°55.744 3.4 358 4.3 102300 65
2004-03-26 07:21:17 51°13.689 2°55.745 5.6 26 4.3 102300 65
2004-03-26 07:21:22 51°13.692 2°55.746 5.2 30 4.3 102290 65
2004-03-26 07:21:27 51°13.695 2°55.746 5 26 4.3 102290 65
2004-03-26 07:21:32 51°13.699 2°55.746 4.7 48 4.4 102290 65
2004-03-26 07:21:37 51°13.703 2°55.745 4.4 6 4.4 102290 65
2004-03-26 07:21:42 51°13.707 2°55.744 4.4 15 4.4 102290 65
2004-03-26 07:21:47 51°13.713 2°55.742 6.5 38 4.4 102290 65
2004-03-26 07:21:52 51°13.718 2°55.738 6.6 39 4.3 102290 65
2004-03-26 07:21:57 51°13.722 2°55.734 4.7 25 4.3 102290 65
2004-03-26 07:22:02 51°13.727 2°55.729 5.8 25 4.4 102290 65
2004-03-26 07:22:07 51°13.731 2°55.725 5.2 35 4.4 102290 65
2004-03-26 07:22:12 51°13.736 2°55.72 5.9 31 4.4 102290 65
2004-03-26 07:22:17 51°13.739 2°55.713 5.4 25 4.4 102290 65
2004-03-26 07:22:22 51°13.745 2°55.708 5 37 4.3 102290 65
2004-03-26 07:22:27 51°13.75 2°55.702 4.3 31 4.3 102290 65
2004-03-26 07:22:39 51°13.764 2°55.686 5.1 32 4.3 102290 64
2004-03-26 07:22:41 51°13.766 2°55.683 4.3 23 4.3 102290 64
2004-03-26 07:22:47 51°13.776 2°55.676 6.5 28 4.3 102290 65
2004-03-26 07:22:51 51°13.783 2°55.671 4.8 357 4.3 102290 65
2004-03-26 07:22:57 51°13.793 2°55.663 6.1 30 4.3 102290 65
2004-03-26 07:23:01 51°13.799 2°55.658 7.6 38 4.3 102290 65
2004-03-26 07:23:07 51°13.809 2°55.65 8.5 45 4.3 102290 65
2004-03-26 07:23:11 51°13.816 2°55.645 6.8 35 4.3 102290 65
2004-03-26 07:23:17 51°13.827 2°55.637 7.8 38 4.3 102290 65
2004-03-26 07:23:21 51°13.834 2°55.632 8.5 38 4.3 102290 65
2004-03-26 07:23:27 51°13.845 2°55.624 8.4 30 4.3 102290 64
2004-03-26 07:23:32 51°13.855 2°55.617 8.9 38 4.3 102290 64
2004-03-26 07:23:36 51°13.863 2°55.612 9.1 43 4.3 102290 64
2004-03-26 07:23:41 51°13.872 2°55.605 9.3 47 4.3 102290 64
2004-03-26 07:23:45 51°13.88 2°55.6 8 44 4.2 102280 64
2004-03-26 07:23:51 51°13.891 2°55.591 7.7 35 4.2 102280 64
2004-03-26 07:23:57 51°13.902 2°55.582 7.8 40 4.2 102280 64
2004-03-26 07:24:01 51°13.91 2°55.576 7.7 28 4.2 102280 64
2004-03-26 07:24:07 51°13.921 2°55.568 7.6 31 4.2 102280 64
2004-03-26 07:24:11 51°13.929 2°55.562 8.6 41 4.2 102280 64
2004-03-26 07:24:17 51°13.941 2°55.554 8.6 36 4.2 102290 64
2004-03-26 07:24:21 51°13.949 2°55.548 7.6 39 4.2 102290 64
2004-03-26 07:24:27 51°13.961 2°55.54 7.6 49 4.2 102290 64
2004-03-26 07:24:31 51°13.97 2°55.534 7 47 4.2 102290 64
2004-03-26 07:24:37 51°13.982 2°55.526 8.2 49 4.2 102290 64
2004-03-26 07:24:41 51°13.99 2°55.521 6.7 41 4.2 102290 64
2004-03-26 07:24:47 51°14.002 2°55.512 7 46 4.2 102280 64
2004-03-26 07:24:52 51°14.012 2°55.505 7.9 42 4.2 102280 64
2004-03-26 07:24:57 51°14.022 2°55.498 6 45 4.1 102280 64
2004-03-26 07:25:01 51°14.03 2°55.492 6.4 46 4.1 102280 64
2004-03-26 07:25:07 51°14.042 2°55.483 8.1 40 4.1 102280 64
2004-03-26 07:25:12 51°14.052 2°55.476 7.6 38 4.1 102280 64
2004-03-26 07:25:17 51°14.062 2°55.469 8.7 43 4.1 102290 64
2004-03-26 07:25:21 51°14.07 2°55.463 7.3 45 4.1 102290 64
2004-03-26 07:25:27 51°14.082 2°55.454 9.1 46 4.2 102290 64
2004-03-26 07:25:32 51°14.093 2°55.445 8.1 43 4.2 102290 64
2004-03-26 07:25:37 51°14.104 2°55.437 9.1 48 4.1 102290 64
2004-03-26 07:25:41 51°14.113 2°55.43 7.9 41 4.1 102290 64
2004-03-26 07:25:47 51°14.127 2°55.419 9.2 45 4.1 102290 64
2004-03-26 07:25:51 51°14.137 2°55.411 9.1 47 4.1 102290 64
2004-03-26 07:25:55 51°14.147 2°55.403 8.8 43 4.1 102280 63
2004-03-26 07:26:01 51°14.161 2°55.39 7.7 37 4.1 102280 63
2004-03-26 07:26:07 51°14.176 2°55.376 8.4 39 4.1 102280 63
2004-03-26 07:26:12 51°14.187 2°55.363 9.6 50 4.1 102280 63
2004-03-26 07:26:17 51°14.199 2°55.35 8.3 42 4.1 102280 62
2004-03-26 07:26:21 51°14.208 2°55.339 9.5 45 4.1 102280 62
2004-03-26 07:26:27 51°14.222 2°55.322 10.2 46 4 102280 63
2004-03-26 07:26:31 51°14.231 2°55.31 9.4 55 4 102280 63
2004-03-26 07:26:37 51°14.243 2°55.291 8.2 57 4.1 102280 64
2004-03-26 07:26:41 51°14.251 2°55.277 8.5 50 4.1 102280 64
2004-03-26 07:26:45 51°14.259 2°55.263 7.7 55 4.1 102280 65
2004-03-26 07:26:52 51°14.273 2°55.238 8 55 4.1 102280 65
2004-03-26 07:26:55 51°14.279 2°55.227 8.5 57 4.1 102280 65
2004-03-26 07:27:01 51°14.29 2°55.205 8.1 51 4.1 102280 65
2004-03-26 07:27:07 51°14.301 2°55.181 8.4 57 4.1 102280 65
2004-03-26 07:27:12 51°14.31 2°55.161 7.7 45 4.1 102280 65
2004-03-26 07:27:16 51°14.316 2°55.144 7.7 55 4.1 102290 65
2004-03-26 07:27:21 51°14.325 2°55.123 7.5 55 4.1 102290 65
2004-03-26 07:27:27 51°14.335 2°55.097 7.3 31 4.1 102280 65
2004-03-26 07:27:32 51°14.343 2°55.076 7.2 42 4.1 102280 65
2004-03-26 07:27:36 51°14.35 2°55.058 8.6 58 4.1 102290 65
2004-03-26 07:27:41 51°14.358 2°55.035 8.2 61 4.1 102290 65
2004-03-26 07:27:47 51°14.367 2°55.008 8.2 60 4.1 102290 65
2004-03-26 07:27:51 51°14.373 2°54.989 8 66 4.1 102290 65
2004-03-26 07:27:57 51°14.382 2°54.96 7.4 61 4.1 102280 66
2004-03-26 07:28:01 51°14.388 2°54.941 7.7 59 4.1 102280 66
2004-03-26 07:28:07 51°14.399 2°54.912 8 53 4.1 102280 65
2004-03-26 07:28:11 51°14.406 2°54.894 8.3 48 4.1 102280 65
2004-03-26 07:28:16 51°14.417 2°54.873 9.3 43 4.1 102270 65
2004-03-26 07:28:21 51°14.429 2°54.853 10 46 4.1 102270 65
2004-03-26 07:28:27 51°14.445 2°54.831 10.1 34 4.1 102280 65
2004-03-26 07:28:31 51°14.457 2°54.818 11 38 4.1 102280 65
2004-03-26 07:28:37 51°14.475 2°54.8 11.1 38 4.1 102280 66
2004-03-26 07:28:41 51°14.487 2°54.79 11.6 41 4.1 102280 66
2004-03-26 07:28:46 51°14.504 2°54.779 11.9 42 4.1 102270 66
2004-03-26 07:28:51 51°14.521 2°54.768 12.1 44 4.1 102270 66
2004-03-26 07:28:57 51°14.541 2°54.756 11.3 40 4.1 102270 67
2004-03-26 07:29:01 51°14.555 2°54.747 12 43 4.1 102270 67
2004-03-26 07:29:07 51°14.575 2°54.735 12.3 43 4.1 102270 67
2004-03-26 07:29:12 51°14.592 2°54.725 12.2 38 4.1 102270 67
2004-03-26 07:29:17 51°14.61 2°54.715 12.3 33 4.1 102260 67
2004-03-26 07:29:21 51°14.624 2°54.708 12.6 29 4.1 102260 67
2004-03-26 07:29:27 51°14.645 2°54.698 12.8 27 4.1 102260 66
2004-03-26 07:29:31 51°14.659 2°54.691 13 30 4.1 102260 66
2004-03-26 07:29:36 51°14.677 2°54.683 12.2 30 4.1 102260 66
2004-03-26 07:29:41 51°14.694 2°54.675 12 29 4.1 102260 66
2004-03-26 07:29:47 51°14.716 2°54.666 11.4 30 4.2 102260 67
2004-03-26 07:29:51 51°14.73 2°54.66 12.2 28 4.2 102260 67
2004-03-26 07:29:55 51°14.744 2°54.654 12.3 26 4.2 102270 66
2004-03-26 07:30:01 51°14.766 2°54.644 11.9 31 4.2 102270 66
2004-03-26 07:30:07 51°14.787 2°54.635 12.2 30 4.2 102270 66
2004-03-26 07:30:11 51°14.801 2°54.628 12 31 4.2 102270 66
2004-03-26 07:30:16 51°14.819 2°54.62 12.5 35 4.1 102270 67
2004-03-26 07:30:21 51°14.837 2°54.612 11.5 37 4.1 102270 67
2004-03-26 07:30:27 51°14.859 2°54.603 11.7 33 4.2 102260 67
2004-03-26 07:30:31 51°14.873 2°54.598 12.8 31 4.2 102260 67
2004-03-26 07:30:37 51°14.895 2°54.591 12.3 32 4.2 102270 67
2004-03-26 07:30:41 51°14.909 2°54.586 11.5 32 4.2 102270 67
2004-03-26 07:30:47 51°14.931 2°54.579 11 32 4.2 102270 68
2004-03-26 07:30:52 51°14.949 2°54.574 11.7 29 4.2 102270 68
2004-03-26 07:30:56 51°14.964 2°54.57 12.6 29 4.2 102270 68
2004-03-26 07:31:01 51°14.982 2°54.565 12.7 30 4.2 102270 68
2004-03-26 07:31:07 51°15.004 2°54.559 12.8 30 4.2 102260 67
2004-03-26 07:31:11 51°15.018 2°54.555 13.1 34 4.2 102260 67
2004-03-26 07:31:16 51°15.036 2°54.55 12.2 29 4.2 102270 68
2004-03-26 07:31:21 51°15.053 2°54.544 11.9 26 4.2 102270 68
2004-03-26 07:31:27 51°15.074 2°54.537 11.9 28 4.2 102270 68
2004-03-26 07:31:32 51°15.092 2°54.531 11.8 25 4.2 102270 68
2004-03-26 07:31:37 51°15.109 2°54.524 11.8 27 4.2 102260 67
2004-03-26 07:31:41 51°15.123 2°54.519 11.8 26 4.2 102260 67
2004-03-26 07:31:47 51°15.144 2°54.51 12.4 29 4.2 102270 67
2004-03-26 07:31:51 51°15.158 2°54.504 12.2 32 4.2 102270 67
2004-03-26 07:31:55 51°15.172 2°54.498 12.3 33 4.2 102270 67
2004-03-26 07:32:01 51°15.194 2°54.489 12.3 28 4.2 102270 67
2004-03-26 07:32:07 51°15.215 2°54.48 11.4 30 4.2 102270 68
2004-03-26 07:32:11 51°15.229 2°54.475 11.2 31 4.2 102270 68
2004-03-26 07:32:16 51°15.247 2°54.468 11.8 30 4.2 102260 68
2004-03-26 07:32:21 51°15.265 2°54.463 11.2 25 4.2 102260 68
2004-03-26 07:32:27 51°15.287 2°54.457 11.9 29 4.2 102270 68
2004-03-26 07:32:31 51°15.302 2°54.454 12.1 23 4.2 102270 68
2004-03-26 07:32:36 51°15.32 2°54.449 12.4 26 4.2 102270 68
2004-03-26 07:32:42 51°15.342 2°54.444 12.6 26 4.2 102270 68
2004-03-26 07:32:45 51°15.353 2°54.441 12 28 4.2 102240 68
2004-03-26 07:32:52 51°15.379 2°54.435 12.4 29 4.2 102240 68
2004-03-26 07:32:56 51°15.393 2°54.431 11.6 24 4.2 102280 68
2004-03-26 07:33:01 51°15.412 2°54.425 11.9 27 4.2 102280 68
2004-03-26 07:33:07 51°15.434 2°54.419 11.5 24 4.2 102240 68
2004-03-26 07:33:12 51°15.452 2°54.413 12.5 26 4.2 102240 68
2004-03-26 07:33:17 51°15.471 2°54.407 11.6 25 4.2 102240 68
2004-03-26 07:33:21 51°15.486 2°54.402 12.3 28 4.2 102240 68
2004-03-26 07:33:25 51°15.5 2°54.398 12.6 25 4.3 102250 69
2004-03-26 07:33:32 51°15.526 2°54.389 12 28 4.3 102250 69
2004-03-26 07:33:37 51°15.544 2°54.384 12.2 25 4.3 102240 69
2004-03-26 07:33:41 51°15.559 2°54.379 12.5 25 4.3 102240 69
2004-03-26 07:33:47 51°15.581 2°54.374 12.5 26 4.3 102250 70
2004-03-26 07:33:51 51°15.596 2°54.37 13 22 4.3 102250 70
2004-03-26 07:33:57 51°15.618 2°54.366 13.4 23 4.3 102250 69
2004-03-26 07:34:01 51°15.633 2°54.363 13.7 22 4.3 102250 69
2004-03-26 07:34:07 51°15.656 2°54.359 13.1 23 4.3 102280 69
2004-03-26 07:34:12 51°15.675 2°54.356 12.7 23 4.3 102280 69
2004-03-26 07:34:17 51°15.693 2°54.353 13.1 22 4.3 102250 70
2004-03-26 07:34:21 51°15.708 2°54.35 12.9 22 4.3 102250 70
2004-03-26 07:34:27 51°15.73 2°54.346 12.1 20 4.3 102240 70
2004-03-26 07:34:31 51°15.745 2°54.343 12.6 16 4.3 102240 70
2004-03-26 07:34:35 51°15.76 2°54.34 12.9 18 4.4 102250 70
2004-03-26 07:34:41 51°15.783 2°54.335 12.7 20 4.4 102250 70
2004-03-26 07:34:47 51°15.805 2°54.331 13 23 4.3 102250 70
2004-03-26 07:34:51 51°15.82 2°54.328 12.6 23 4.3 102250 70
2004-03-26 07:34:57 51°15.842 2°54.324 12.2 23 4.4 102250 70
2004-03-26 07:35:02 51°15.861 2°54.321 13.5 23 4.4 102250 70
2004-03-26 07:35:07 51°15.88 2°54.319 14.1 21 4.3 102250 70
2004-03-26 07:35:11 51°15.895 2°54.317 13.4 16 4.3 102250 70
2004-03-26 07:35:17 51°15.917 2°54.314 12.9 19 4.4 102250 70
2004-03-26 07:35:21 51°15.932 2°54.312 13.3 21 4.4 102250 70
2004-03-26 07:35:27 51°15.954 2°54.308 13.3 26 4.4 102250 70
2004-03-26 07:35:31 51°15.969 2°54.306 12.5 26 4.4 102250 70
2004-03-26 07:35:37 51°15.991 2°54.303 13.2 27 4.4 102240 70
2004-03-26 07:35:41 51°16.006 2°54.3 13.4 27 4.4 102240 70
2004-03-26 07:35:47 51°16.029 2°54.297 13.3 27 4.4 102250 71
2004-03-26 07:35:51 51°16.043 2°54.294 13.8 27 4.4 102250 71
2004-03-26 07:35:57 51°16.065 2°54.291 12.6 26 4.5 102240 71
2004-03-26 07:36:01 51°16.078 2°54.288 12.9 26 4.5 102240 71
2004-03-26 07:36:07 51°16.098 2°54.285 12.3 25 4.4 102240 70
2004-03-26 07:36:11 51°16.111 2°54.283 12.2 25 4.4 102240 70
2004-03-26 07:36:17 51°16.129 2°54.28 11.4 26 4.4 102240 70
2004-03-26 07:36:21 51°16.141 2°54.278 11.4 29 4.4 102240 70
2004-03-26 07:36:27 51°16.157 2°54.275 12.8 27 4.4 102270 70
2004-03-26 07:36:31 51°16.168 2°54.274 11.4 27 4.4 102270 70
2004-03-26 07:36:37 51°16.182 2°54.272 10.5 25 4.4 102270 70
2004-03-26 07:36:41 51°16.192 2°54.27 10.3 26 4.4 102270 70
2004-03-26 07:36:47 51°16.204 2°54.269 10 26 4.4 102280 70
2004-03-26 07:36:51 51°16.212 2°54.269 10 23 4.4 102280 70
2004-03-26 07:36:57 51°16.223 2°54.269 9.3 22 4.4 102280 70
2004-03-26 07:37:01 51°16.23 2°54.27 8.9 22 4.4 102280 70
2004-03-26 07:37:07 51°16.239 2°54.272 8.7 19 4.3 102280 69
2004-03-26 07:37:12 51°16.245 2°54.273 7.9 14 4.3 102280 69
2004-03-26 07:37:16 51°16.249 2°54.274 7.4 11 4.3 102290 69
2004-03-26 07:37:21 51°16.253 2°54.276 6.9 10 4.3 102290 69
2004-03-26 07:37:27 51°16.257 2°54.277 6.4 11 4.3 102290 69
2004-03-26 07:37:31 51°16.259 2°54.278 5.7 8 4.3 102290 69
2004-03-26 07:37:36 51°16.26 2°54.279 5.8 1 4.3 102280 69
2004-03-26 07:37:41 51°16.262 2°54.28 6.2 348 4.3 102280 69
2004-03-26 07:37:47 51°16.264 2°54.281 6.7 349 4.3 102290 69
2004-03-26 07:37:51 51°16.264 2°54.281 6.9 354 4.3 102290 69
2004-03-26 07:37:57 51°16.266 2°54.283 7.8 353 4.3 102290 69
2004-03-26 07:38:01 51°16.266 2°54.284 8.2 347 4.3 102290 69
2004-03-26 07:38:07 51°16.267 2°54.285 8.1 346 4.3 102290 69
2004-03-26 07:38:11 51°16.267 2°54.285 7.9 342 4.3 102290 69
2004-03-26 07:38:16 51°16.268 2°54.287 7.1 339 4.3 102290 69
2004-03-26 07:38:21 51°16.268 2°54.288 7.5 338 4.3 102290 69
2004-03-26 07:38:27 51°16.268 2°54.289 7.4 335 4.3 102290 69
2004-03-26 07:38:32 51°16.268 2°54.29 7.5 336 4.3 102290 69
2004-03-26 07:38:36 51°16.268 2°54.29 7.7 333 4.3 102280 69
2004-03-26 07:38:41 51°16.267 2°54.291 7.4 333 4.3 102280 69
2004-03-26 07:38:47 51°16.267 2°54.292 7.3 328 4.3 102280 68
2004-03-26 07:38:51 51°16.267 2°54.292 7.4 324 4.3 102280 68
2004-03-26 07:38:57 51°16.266 2°54.293 7.2 318 4.3 102280 68
2004-03-26 07:39:01 51°16.265 2°54.293 7.3 320 4.3 102280 68
2004-03-26 07:39:07 51°16.265 2°54.294 6.7 318 4.2 102270 68
2004-03-26 07:39:11 51°16.264 2°54.294 7.4 316 4.2 102270 68
2004-03-26 07:39:17 51°16.263 2°54.294 6.6 228 4.2 102280 68
2004-03-26 07:39:21 51°16.262 2°54.294 6.4 43 4.2 102280 68
2004-03-26 07:39:27 51°16.262 2°54.295 5.8 312 4.2 102270 68
2004-03-26 07:39:31 51°16.261 2°54.295 5.9 312 4.2 102270 68
2004-03-26 07:39:37 51°16.26 2°54.295 6 41 4.2 102270 68
2004-03-26 07:39:41 51°16.259 2°54.296 6 323 4.2 102270 68
2004-03-26 07:39:47 51°16.258 2°54.296 6.9 321 4.3 102280 68
2004-03-26 07:39:51 51°16.257 2°54.297 7 321 4.3 102280 68
2004-03-26 07:39:56 51°16.256 2°54.298 6.7 321 4.3 102290 68
2004-03-26 07:40:01 51°16.255 2°54.299 5.8 322 4.3 102290 68
2004-03-26 07:40:07 51°16.254 2°54.301 6.9 321 4.3 102290 68
2004-03-26 07:40:12 51°16.253 2°54.303 7.4 317 4.3 102290 68
2004-03-26 07:40:17 51°16.252 2°54.307 6.9 328 4.3 102280 69
2004-03-26 07:40:21 51°16.251 2°54.311 7.9 326 4.3 102280 69
2004-03-26 07:40:27 51°16.25 2°54.318 6.8 323 4.3 102290 69
2004-03-26 07:40:31 51°16.25 2°54.322 6.5 324 4.3 102290 69
2004-03-26 07:40:36 51°16.249 2°54.327 7.2 325 4.3 102280 68
2004-03-26 07:40:41 51°16.249 2°54.333 6.5 320 4.3 102280 68
2004-03-26 07:40:47 51°16.248 2°54.34 6.8 319 4.3 102280 68
2004-03-26 07:40:52 51°16.248 2°54.346 6.6 326 4.3 102280 68
2004-03-26 07:40:57 51°16.248 2°54.352 6.4 331 4.3 102280 68
2004-03-26 07:41:01 51°16.248 2°54.357 6.4 330 4.3 102280 68
2004-03-26 07:41:07 51°16.247 2°54.364 7 328 4.3 102280 67
2004-03-26 07:41:12 51°16.247 2°54.37 3.3 331 4.3 102280 67
2004-03-26 07:41:16 51°16.247 2°54.374 6.5 334 4.3 102280 67
2004-03-26 07:41:21 51°16.246 2°54.38 6.7 326 4.3 102280 67
2004-03-26 07:41:27 51°16.246 2°54.387 7.2 330 4.3 102280 67
2004-03-26 07:41:31 51°16.246 2°54.391 7.7 332 4.3 102280 67
2004-03-26 07:41:36 51°16.245 2°54.396 8.4 329 4.4 102280 67
2004-03-26 07:41:41 51°16.245 2°54.401 7.9 327 4.4 102280 67
2004-03-26 07:41:47 51°16.245 2°54.407 8.5 327 4.4 102270 67
2004-03-26 07:41:51 51°16.244 2°54.41 8 321 4.4 102270 67
2004-03-26 07:41:57 51°16.244 2°54.415 7.2 322 4.4 102280 67
2004-03-26 07:42:01 51°16.243 2°54.418 7 321 4.4 102280 67
2004-03-26 07:42:07 51°16.243 2°54.423 6.6 322 4.4 102270 68
2004-03-26 07:42:11 51°16.242 2°54.426 6.6 319 4.4 102270 68
2004-03-26 07:42:16 51°16.242 2°54.429 6.1 321 4.4 102270 68
2004-03-26 07:42:21 51°16.241 2°54.432 6.7 316 4.4 102270 68
2004-03-26 07:42:27 51°16.241 2°54.437 6.2 317 4.4 102280 67
2004-03-26 07:42:31 51°16.241 2°54.441 6.4 324 4.4 102280 67
2004-03-26 07:42:36 51°16.24 2°54.445 6.6 328 4.4 102280 67
2004-03-26 07:42:41 51°16.24 2°54.45 6.2 329 4.4 102280 67
2004-03-26 07:42:47 51°16.24 2°54.456 6.1 333 4.4 102280 67
2004-03-26 07:42:52 51°16.24 2°54.462 7.1 330 4.4 102280 67
2004-03-26 07:42:57 51°16.239 2°54.467 7.7 331 4.4 102280 67
2004-03-26 07:43:01 51°16.239 2°54.472 7.4 325 4.4 102280 67
2004-03-26 07:43:07 51°16.239 2°54.479 7.1 333 4.4 102280 67
2004-03-26 07:43:11 51°16.239 2°54.483 7.2 329 4.4 102280 67
2004-03-26 07:43:17 51°16.239 2°54.491 7.6 323 4.4 102280 67
2004-03-26 07:43:21 51°16.238 2°54.495 7.3 327 4.4 102280 67
2004-03-26 07:43:27 51°16.238 2°54.503 7.4 325 4.5 102280 67
2004-03-26 07:43:31 51°16.238 2°54.508 7.3 325 4.5 102280 67
2004-03-26 07:43:36 51°16.237 2°54.514 7.2 320 4.4 102280 67
2004-03-26 07:43:42 51°16.237 2°54.521 7 323 4.4 102280 67
2004-03-26 07:43:47 51°16.237 2°54.528 7.5 39 4.4 102280 67
2004-03-26 07:43:52 51°16.236 2°54.534 7.7 318 4.4 102280 67
2004-03-26 07:43:57 51°16.236 2°54.54 8.1 320 4.4 102280 67
2004-03-26 07:44:01 51°16.235 2°54.545 7.4 319 4.4 102280 67
2004-03-26 07:44:07 51°16.235 2°54.552 7.2 316 4.5 102280 67
2004-03-26 07:44:12 51°16.234 2°54.558 7.5 316 4.5 102280 67
2004-03-26 07:44:17 51°16.233 2°54.564 7 43 4.5 102270 68
2004-03-26 07:44:21 51°16.233 2°54.569 6.6 316 4.5 102270 68
2004-03-26 07:44:27 51°16.232 2°54.576 6.7 320 4.5 102270 68
2004-03-26 07:44:31 51°16.232 2°54.581 7 321 4.5 102270 68
2004-03-26 07:44:36 51°16.231 2°54.587 7.8 321 4.5 102270 68
2004-03-26 07:44:41 51°16.23 2°54.593 7.1 320 4.5 102270 68
2004-03-26 07:44:47 51°16.229 2°54.6 7.5 324 4.5 102280 68
2004-03-26 07:44:51 51°16.229 2°54.605 7.2 325 4.5 102280 68
2004-03-26 07:44:56 51°16.228 2°54.61 7.1 331 4.5 102280 68
2004-03-26 07:45:01 51°16.227 2°54.616 6.5 336 4.5 102280 68
2004-03-26 07:45:06 51°16.227 2°54.622 8.2 331 4.5 102280 68
2004-03-26 07:45:12 51°16.226 2°54.629 8.8 331 4.5 102280 68
2004-03-26 07:45:16 51°16.226 2°54.633 9 326 4.6 102280 68
2004-03-26 07:45:21 51°16.225 2°54.639 8.1 325 4.6 102280 68
2004-03-26 07:45:27 51°16.224 2°54.645 8.4 325 4.6 102280 68
2004-03-26 07:45:32 51°16.224 2°54.651 7.7 324 4.6 102280 68
2004-03-26 07:45:36 51°16.223 2°54.655 7.8 331 4.6 102280 68
2004-03-26 07:45:41 51°16.223 2°54.661 8 340 4.6 102280 68
2004-03-26 07:45:47 51°16.222 2°54.667 7.9 339 4.5 102270 68
2004-03-26 07:45:51 51°16.221 2°54.672 8.1 337 4.5 102270 68
2004-03-26 07:45:57 51°16.221 2°54.678 7.3 336 4.5 102280 67
2004-03-26 07:46:01 51°16.221 2°54.682 7.5 334 4.5 102280 67
2004-03-26 07:46:07 51°16.22 2°54.688 7.3 336 4.5 102270 67
2004-03-26 07:46:11 51°16.22 2°54.693 7.4 337 4.5 102270 67
2004-03-26 07:46:16 51°16.22 2°54.698 7.1 335 4.5 102270 67
2004-03-26 07:46:21 51°16.219 2°54.703 7.7 338 4.5 102270 67
2004-03-26 07:46:27 51°16.219 2°54.709 7.8 336 4.5 102280 66
2004-03-26 07:46:32 51°16.219 2°54.714 8.4   4.5 102280 66
2004-03-26 07:46:37 51°16.218 2°54.719 7.7 327 4.5 102280 66
2004-03-26 07:46:41 51°16.218 2°54.723 7.1 329 4.5 102280 66
2004-03-26 07:46:47 51°16.218 2°54.729 8 331 4.5 102280 66
2004-03-26 07:46:51 51°16.218 2°54.733 6.8 332 4.5 102280 66
2004-03-26 07:46:57 51°16.218 2°54.74 6.6 332 4.5 102270 66
2004-03-26 07:47:01 51°16.218 2°54.744 7.5 334 4.5 102270 66
2004-03-26 07:47:07 51°16.218 2°54.75 7.5 323 4.5 102280 66
2004-03-26 07:47:12 51°16.218 2°54.755 8.3 327 4.5 102280 66
2004-03-26 07:47:16 51°16.218 2°54.759 7.8 328 4.5 102270 66
2004-03-26 07:47:21 51°16.218 2°54.765 8 325 4.5 102270 66
2004-03-26 07:47:27 51°16.218 2°54.771 7.6 327 4.5 102280 66
2004-03-26 07:47:31 51°16.217 2°54.775 7.2 323 4.5 102280 66
2004-03-26 07:47:36 51°16.217 2°54.781 7.7 327 4.5 102280 66
2004-03-26 07:47:41 51°16.217 2°54.786 6.8 324 4.5 102280 66
2004-03-26 07:47:47 51°16.217 2°54.793 7.4 317 4.5 102280 66
2004-03-26 07:47:51 51°16.217 2°54.797 7 326 4.5 102280 66
2004-03-26 07:47:57 51°16.217 2°54.804 7.6 326 4.5 102280 66
2004-03-26 07:48:01 51°16.216 2°54.808 6.8 335 4.5 102280 66
2004-03-26 07:48:07 51°16.216 2°54.815 6.7 338 4.6 102280 67
2004-03-26 07:48:11 51°16.216 2°54.819 6.9 335 4.6 102280 67
2004-03-26 07:48:17 51°16.216 2°54.826 7.2 333 4.6 102280 67
2004-03-26 07:48:21 51°16.216 2°54.831 6.9 337 4.6 102280 67
2004-03-26 07:48:27 51°16.215 2°54.837 7.7 332 4.6 102280 67
2004-03-26 07:48:31 51°16.216 2°54.842 7.1   4.6 102280 67
2004-03-26 07:48:37 51°16.215 2°54.849 7.2 332 4.6 102290 68
2004-03-26 07:48:41 51°16.215 2°54.853 7.8 336 4.6 102290 68
2004-03-26 07:48:47 51°16.215 2°54.86 7.2 332 4.6 102280 67
2004-03-26 07:48:52 51°16.215 2°54.866 6.5 334 4.6 102280 67
2004-03-26 07:48:57 51°16.214 2°54.871 7.6 335 4.6 102280 67
2004-03-26 07:49:01 51°16.214 2°54.876 7.7 336 4.6 102280 67
2004-03-26 07:49:07 51°16.213 2°54.883 8 336 4.6 102290 68
2004-03-26 07:49:11 51°16.213 2°54.887 8.2 335 4.6 102290 68
2004-03-26 07:49:17 51°16.212 2°54.894 8 339 4.6 102290 68
2004-03-26 07:49:21 51°16.212 2°54.899 8.4 333 4.6 102290 68
2004-03-26 07:49:27 51°16.211 2°54.906 7.9 332 4.7 102280 68
2004-03-26 07:49:32 51°16.211 2°54.911 8.1 334 4.7 102280 68
2004-03-26 07:49:37 51°16.21 2°54.917 7.5 333 4.6 102280 68
2004-03-26 07:49:41 51°16.21 2°54.921 7.3 336 4.6 102280 68
2004-03-26 07:49:47 51°16.209 2°54.928 7.1 334 4.6 102280 67
2004-03-26 07:49:51 51°16.209 2°54.933 6.6 337 4.6 102280 67
2004-03-26 07:49:57 51°16.208 2°54.94 6.5 337 4.6 102290 67
2004-03-26 07:50:01 51°16.208 2°54.944 6.7 335 4.6 102290 67
2004-03-26 07:50:07 51°16.207 2°54.951 6.4 335 4.6 102280 67
2004-03-26 07:50:11 51°16.207 2°54.956 6.9 330 4.6 102280 67
2004-03-26 07:50:17 51°16.206 2°54.963 6.5 339 4.6 102290 67
2004-03-26 07:50:21 51°16.205 2°54.968 7.3 336 4.6 102290 67
2004-03-26 07:50:27 51°16.205 2°54.975 7 340 4.6 102280 67
2004-03-26 07:50:31 51°16.204 2°54.98 7.4   4.6 102280 67
2004-03-26 07:50:37 51°16.204 2°54.987 7.8 333 4.6 102280 67
2004-03-26 07:50:41 51°16.203 2°54.992 6.9 332 4.6 102280 67
2004-03-26 07:50:47 51°16.203 2°54.999 7.3 327 4.6 102290 67
2004-03-26 07:50:51 51°16.202 2°55.003 6.9 332 4.6 102290 67
2004-03-26 07:50:57 51°16.201 2°55.01 6.8 338 4.6 102280 67
2004-03-26 07:51:01 51°16.201 2°55.015 6.4 334 4.6 102280 67
2004-03-26 07:51:07 51°16.2 2°55.022 6.8 337 4.6 102280 67
2004-03-26 07:51:11 51°16.2 2°55.027 6.6 335 4.6 102280 67
2004-03-26 07:51:17 51°16.199 2°55.034 6.8 342 4.6 102280 67
2004-03-26 07:51:21 51°16.199 2°55.038 7.3 336 4.6 102280 67
2004-03-26 07:51:27 51°16.198 2°55.045 7 333 4.6 102280 67
2004-03-26 07:51:32 51°16.198 2°55.051 7.5   4.6 102280 67
2004-03-26 07:51:37 51°16.197 2°55.057 8 336 4.6 102290 67
2004-03-26 07:51:41 51°16.197 2°55.061 7.1 337 4.6 102290 67
2004-03-26 07:51:47 51°16.196 2°55.068 7.8 337 4.6 102280 68
2004-03-26 07:51:51 51°16.196 2°55.073 7.8 340 4.6 102280 68
2004-03-26 07:51:57 51°16.196 2°55.08 7.6 332 4.7 102280 68
2004-03-26 07:52:01 51°16.196 2°55.084 7.8 335 4.7 102280 68
2004-03-26 07:52:07 51°16.195 2°55.091 7.5 336 4.7 102280 67
2004-03-26 07:52:11 51°16.195 2°55.095 7 341 4.7 102280 67
2004-03-26 07:52:16 51°16.195 2°55.101 7 331 4.7 102280 67
2004-03-26 07:52:21 51°16.194 2°55.107 7.6 333 4.7 102280 67
2004-03-26 07:52:27 51°16.194 2°55.113 8.4 328 4.7 102280 67
2004-03-26 07:52:32 51°16.194 2°55.119 7.7 332 4.7 102280 67
2004-03-26 07:52:35 51°16.194 2°55.122 8 330 4.7 102280 67
2004-03-26 07:52:41 51°16.194 2°55.129 8.2 331 4.7 102280 67
2004-03-26 07:52:45 51°16.193 2°55.133 7.8 328 4.7 102280 67
2004-03-26 07:52:51 51°16.193 2°55.14 7.6 328 4.7 102280 67
2004-03-26 07:52:57 51°16.193 2°55.146 7.5 333 4.7 102280 67
2004-03-26 07:53:01 51°16.193 2°55.151 7.5 328 4.7 102280 67
2004-03-26 07:53:07 51°16.193 2°55.157 7.1 330 4.6 102280 67
2004-03-26 07:53:11 51°16.193 2°55.161 7.2 329 4.6 102280 67
2004-03-26 07:53:16 51°16.193 2°55.167 7.6 326 4.6 102280 67
2004-03-26 07:53:21 51°16.193 2°55.172 6.9 331 4.6 102280 67
2004-03-26 07:53:27 51°16.193 2°55.179 7.3 340 4.6 102280 66
2004-03-26 07:53:31 51°16.194 2°55.183 7.6 342 4.6 102280 66
2004-03-26 07:53:37 51°16.194 2°55.189 7.4 326 4.6 102280 66
2004-03-26 07:53:41 51°16.194 2°55.193 6.9 335 4.6 102280 66
2004-03-26 07:53:47 51°16.195 2°55.2 7.8 334 4.6 102280 66
2004-03-26 07:53:52 51°16.195 2°55.205 7.4 337 4.6 102280 66
2004-03-26 07:53:57 51°16.196 2°55.21 8.4 332 4.6 102290 67
2004-03-26 07:54:01 51°16.196 2°55.214 7.9 331 4.6 102290 67
2004-03-26 07:54:07 51°16.196 2°55.221 7.4 335 4.7 102280 67
2004-03-26 07:54:12 51°16.197 2°55.226 6.9 332 4.7 102280 67
2004-03-26 07:54:17 51°16.197 2°55.231 7.5 330 4.7 102280 68
2004-03-26 07:54:21 51°16.198 2°55.235 7.4 328 4.7 102280 68
2004-03-26 07:54:27 51°16.199 2°55.242 7 329 4.7 102280 67
2004-03-26 07:54:31 51°16.199 2°55.246 6.8 327 4.7 102280 67
2004-03-26 07:54:37 51°16.2 2°55.252 7.2 329 4.6 102280 67
2004-03-26 07:54:41 51°16.2 2°55.257 8.2 324 4.6 102280 67
2004-03-26 07:54:47 51°16.202 2°55.263 7.9 338 4.6 102280 66
2004-03-26 07:54:51 51°16.202 2°55.267 8.3 332 4.6 102280 66
2004-03-26 07:54:57 51°16.203 2°55.273 8 330 4.6 102270 66
2004-03-26 07:55:01 51°16.204 2°55.277 7.5 332 4.6 102270 66
2004-03-26 07:55:07 51°16.205 2°55.283 7.1 330 4.6 102280 66
2004-03-26 07:55:11 51°16.205 2°55.288 7.3 331 4.6 102280 66
2004-03-26 07:55:17 51°16.207 2°55.294 7 336 4.6 102280 66
2004-03-26 07:55:21 51°16.207 2°55.298 6.9 342 4.6 102280 66
2004-03-26 07:55:27 51°16.208 2°55.305 6.3 336 4.6 102280 67
2004-03-26 07:55:31 51°16.209 2°55.309 6.4 337 4.6 102280 67
2004-03-26 07:55:36 51°16.209 2°55.315 6 337 4.6 102280 66
2004-03-26 07:55:41 51°16.21 2°55.32 6.1 337 4.6 102280 66
2004-03-26 07:55:47 51°16.21 2°55.327 6.6 337 4.6 102280 67
2004-03-26 07:55:51 51°16.211 2°55.331 6.5 338 4.6 102280 67
2004-03-26 07:55:56 51°16.211 2°55.337 6.5 334 4.6 102280 67
2004-03-26 07:56:01 51°16.212 2°55.343 5.9 335 4.6 102280 67
2004-03-26 07:56:07 51°16.212 2°55.35 6.5 333 4.6 102280 67
2004-03-26 07:56:11 51°16.212 2°55.354 6.3 330 4.6 102280 67
2004-03-26 07:56:17 51°16.213 2°55.361 7.2 326 4.6 102280 67
2004-03-26 07:56:21 51°16.213 2°55.365 7 322 4.6 102280 67
2004-03-26 07:56:27 51°16.213 2°55.372 6.1 325 4.6 102280 67
2004-03-26 07:56:31 51°16.213 2°55.377 6.7   4.6 102280 67
2004-03-26 07:56:36 51°16.213 2°55.383 7.1 331 4.7 102280 67
2004-03-26 07:56:41 51°16.213 2°55.389 7.8 323 4.7 102280 67
2004-03-26 07:56:47 51°16.212 2°55.396 8.2 325 4.7 102280 67
2004-03-26 07:56:52 51°16.212 2°55.401 8.5 327 4.7 102280 67
2004-03-26 07:56:56 51°16.212 2°55.406 7.7 338 4.7 102270 67
2004-03-26 07:57:01 51°16.212 2°55.412 8.3 331 4.7 102270 67
2004-03-26 07:57:07 51°16.211 2°55.419 8 330 4.7 102280 67
2004-03-26 07:57:12 51°16.211 2°55.425 7.9 328 4.7 102280 67
2004-03-26 07:57:17 51°16.21 2°55.431 7.6 325 4.7 102270 67
2004-03-26 07:57:21 51°16.209 2°55.436 7.5 325 4.7 102270 67
2004-03-26 07:57:27 51°16.209 2°55.442 8.1 326 4.7 102280 67
2004-03-26 07:57:31 51°16.208 2°55.447 8.5   4.7 102280 67
2004-03-26 07:57:37 51°16.207 2°55.454 7.4 322 4.6 102280 66
2004-03-26 07:57:41 51°16.206 2°55.459 8 327 4.6 102280 66
2004-03-26 07:57:47 51°16.205 2°55.466 7.6 324 4.6 102280 66
2004-03-26 07:57:51 51°16.204 2°55.471 7.3 325 4.6 102280 66
2004-03-26 07:57:57 51°16.203 2°55.478 7.6 328 4.6 102270 66
2004-03-26 07:58:01 51°16.201 2°55.482 7.6 325 4.6 102270 66
2004-03-26 07:58:07 51°16.2 2°55.489 7.8 326 4.6 102280 66
2004-03-26 07:58:11 51°16.199 2°55.494 7.5 325 4.6 102280 66
2004-03-26 07:58:17 51°16.197 2°55.501 7.8 328 4.6 102280 66
2004-03-26 07:58:21 51°16.196 2°55.506 7.6 325 4.6 102280 66
2004-03-26 07:58:27 51°16.194 2°55.513 7.7 327 4.6 102280 66
2004-03-26 07:58:31 51°16.193 2°55.517 7.1 326 4.6 102280 66
2004-03-26 07:58:37 51°16.191 2°55.524 6.8 328 4.6 102280 66
2004-03-26 07:58:41 51°16.19 2°55.529 7.8 322 4.6 102280 66
2004-03-26 07:58:47 51°16.189 2°55.536 7.9 320 4.6 102280 65
2004-03-26 07:58:51 51°16.188 2°55.54 7.2 316 4.6 102280 65
2004-03-26 07:58:56 51°16.186 2°55.546 6.5 320 4.6 102280 65
2004-03-26 07:59:01 51°16.185 2°55.551 7.6 311 4.6 102280 65
2004-03-26 07:59:05 51°16.183 2°55.556 8 315 4.6 102280 66
2004-03-26 07:59:12 51°16.182 2°55.564 7 228 4.6 102280 66
2004-03-26 07:59:17 51°16.181 2°55.569 7.1 313 4.6 102280 66
2004-03-26 07:59:21 51°16.18 2°55.574 7.7 320 4.6 102280 66
2004-03-26 07:59:27 51°16.179 2°55.581 7.9 317 4.6 102280 66
2004-03-26 07:59:31 51°16.178 2°55.585 7.7 321 4.6 102280 66
2004-03-26 07:59:37 51°16.177 2°55.592 8.1 319 4.6 102280 66
2004-03-26 07:59:41 51°16.177 2°55.596 8.2 319 4.6 102280 66
2004-03-26 07:59:47 51°16.176 2°55.603 7.7 317 4.6 102280 66
2004-03-26 07:59:51 51°16.176 2°55.607 8.2 324 4.6 102280 66
2004-03-26 07:59:57 51°16.175 2°55.614 7.7 325 4.6 102280 66
2004-03-26 08:00:02 51°16.174 2°55.619 7.5 327 4.6 102280 66
2004-03-26 08:00:07 51°16.174 2°55.625 7.1 329 4.6 102280 66
2004-03-26 08:00:11 51°16.174 2°55.629 6.8 334 4.6 102280 66
2004-03-26 08:00:16 51°16.173 2°55.635 6.6 332 4.6 102280 65
2004-03-26 08:00:21 51°16.173 2°55.64 7.3 328 4.6 102280 65
2004-03-26 08:00:27 51°16.173 2°55.647 7.8 328 4.6 102280 65
2004-03-26 08:00:32 51°16.173 2°55.652 7.4 333 4.6 102280 65
2004-03-26 08:00:36 51°16.173 2°55.657 7.7 330 4.6 102290 65
2004-03-26 08:00:41 51°16.173 2°55.662 6.8 330 4.6 102290 65
2004-03-26 08:00:47 51°16.173 2°55.669 6.9 329 4.6 102280 65
2004-03-26 08:00:51 51°16.173 2°55.673 7.3 328 4.6 102280 65
2004-03-26 08:00:57 51°16.173 2°55.68 7.1 327 4.6 102280 66
2004-03-26 08:01:01 51°16.174 2°55.684 7.9 326 4.6 102280 66
2004-03-26 08:01:07 51°16.174 2°55.691 8 325 4.6 102280 66
2004-03-26 08:01:12 51°16.174 2°55.697 7.6 326 4.6 102280 66
2004-03-26 08:01:16 51°16.174 2°55.701 7.9 324 4.6 102280 66
2004-03-26 08:01:21 51°16.174 2°55.707 8.3 324 4.6 102280 66
2004-03-26 08:01:27 51°16.174 2°55.713 7.7 325 4.6 102280 66
2004-03-26 08:01:31 51°16.174 2°55.718 7.9 322 4.6 102280 66
2004-03-26 08:01:37 51°16.174 2°55.724 7.4 324 4.6 102280 66
2004-03-26 08:01:41 51°16.174 2°55.729 6.8 326 4.6 102280 66
2004-03-26 08:01:47 51°16.175 2°55.735 7.1 325 4.6 102280 66
2004-03-26 08:01:51 51°16.174 2°55.74 6.9 329 4.6 102280 66
2004-03-26 08:01:57 51°16.175 2°55.746 7.3 327 4.6 102280 66
2004-03-26 08:02:01 51°16.175 2°55.751 6.7 322 4.6 102280 66
2004-03-26 08:02:07 51°16.175 2°55.758 6.8 326 4.6 102280 66
2004-03-26 08:02:12 51°16.175 2°55.763 7.4 319 4.6 102280 66
2004-03-26 08:02:16 51°16.176 2°55.768 7 322 4.6 102280 66
2004-03-26 08:02:22 51°16.176 2°55.775 7 332 4.6 102280 66
2004-03-26 08:02:25 51°16.176 2°55.778 6.5 331 4.6 102280 66
2004-03-26 08:02:31 51°16.176 2°55.785 6.6 332 4.6 102280 66
2004-03-26 08:02:36 51°16.176 2°55.79 6.9 332 4.6 102280 66
2004-03-26 08:02:41 51°16.177 2°55.796 7.2 331 4.6 102280 66
2004-03-26 08:02:47 51°16.177 2°55.803 7.7 325 4.6 102280 67
2004-03-26 08:02:52 51°16.177 2°55.808 7.6 333 4.6 102280 67
2004-03-26 08:02:57 51°16.178 2°55.814 6.8 333 4.6 102280 67
2004-03-26 08:03:01 51°16.178 2°55.818 6.5 344 4.6 102280 67
2004-03-26 08:03:07 51°16.179 2°55.825 6.6 338 4.6 102280 67
2004-03-26 08:03:12 51°16.179 2°55.831 6.4 348 4.6 102280 67
2004-03-26 08:03:17 51°16.179 2°55.836 7.6 343 4.7 102280 67
2004-03-26 08:03:21 51°16.179 2°55.84 9 332 4.7 102280 67
2004-03-26 08:03:27 51°16.18 2°55.847 9.3 332 4.7 102280 67
2004-03-26 08:03:31 51°16.18 2°55.851 8.1 333 4.7 102280 67
2004-03-26 08:03:36 51°16.18 2°55.857 7.6 330 4.7 102280 68
2004-03-26 08:03:41 51°16.181 2°55.863 8.2 326 4.7 102280 68
2004-03-26 08:03:47 51°16.181 2°55.869 7.7 327 4.7 102280 68
2004-03-26 08:03:51 51°16.181 2°55.874 7.4 330 4.7 102280 68
2004-03-26 08:03:56 51°16.182 2°55.88 7.8 338 4.7 102280 68
2004-03-26 08:04:01 51°16.182 2°55.885 7.5 335 4.7 102280 68
2004-03-26 08:04:07 51°16.182 2°55.892 8.1 331 4.7 102270 67
2004-03-26 08:04:11 51°16.182 2°55.896 7.4 331 4.7 102270 67
2004-03-26 08:04:17 51°16.183 2°55.903 6.7 332 4.7 102280 68
2004-03-26 08:04:21 51°16.183 2°55.908 6.7 333 4.7 102280 68
2004-03-26 08:04:27 51°16.183 2°55.914 7.2 330 4.7 102280 68
2004-03-26 08:04:32 51°16.183 2°55.92 7.3 334 4.7 102280 68
2004-03-26 08:04:37 51°16.183 2°55.925 7.2 331 4.7 102280 67
2004-03-26 08:04:41 51°16.184 2°55.93 6.8 332 4.7 102280 67
2004-03-26 08:04:47 51°16.184 2°55.937 7.1 333 4.7 102270 67
2004-03-26 08:04:51 51°16.184 2°55.941 6.9 328 4.7 102270 67
2004-03-26 08:04:57 51°16.184 2°55.948 6.4 331 4.7 102280 68
2004-03-26 08:05:01 51°16.184 2°55.953 6.9 330 4.7 102280 68
2004-03-26 08:05:07 51°16.185 2°55.959 6.9 335 4.7 102280 67
2004-03-26 08:05:11 51°16.185 2°55.964 8.1 330 4.7 102280 67
2004-03-26 08:05:17 51°16.185 2°55.971 7.5 333 4.7 102280 67
2004-03-26 08:05:21 51°16.185 2°55.975 7.9 326 4.7 102280 67
2004-03-26 08:05:27 51°16.186 2°55.982 7.5 333 4.7 102280 67
2004-03-26 08:05:32 51°16.186 2°55.988 8.2 328 4.7 102280 67
2004-03-26 08:05:37 51°16.186 2°55.993 8.8 333 4.7 102280 67
2004-03-26 08:05:41 51°16.186 2°55.998 8.1 336 4.7 102280 67
2004-03-26 08:05:47 51°16.187 2°56.004 8.5 339 4.7 102270 67
2004-03-26 08:05:51 51°16.187 2°56.009 8.3 340 4.7 102270 67
2004-03-26 08:05:56 51°16.187 2°56.015 7.8 341 4.7 102280 67
2004-03-26 08:06:01 51°16.188 2°56.021 7.9 339 4.7 102280 67
2004-03-26 08:06:07 51°16.187 2°56.027 8.1 338 4.7 102280 67
2004-03-26 08:06:12 51°16.188 2°56.033 8 342 4.7 102280 67
2004-03-26 08:06:17 51°16.188 2°56.039 7.5 340 4.7 102280 67
2004-03-26 08:06:21 51°16.188 2°56.043 8 337 4.7 102280 67
2004-03-26 08:06:27 51°16.188 2°56.05 7.7 337 4.7 102280 67
2004-03-26 08:06:31 51°16.188 2°56.054 7.7 335 4.7 102280 67
2004-03-26 08:06:36 51°16.188 2°56.06 6.4 332 4.7 102280 67
2004-03-26 08:06:41 51°16.189 2°56.066 7.3 333 4.7 102280 67
2004-03-26 08:06:47 51°16.189 2°56.072 7.4 333 4.7 102280 67
2004-03-26 08:06:52 51°16.19 2°56.077 7.4 335 4.7 102280 67
2004-03-26 08:06:57 51°16.19 2°56.083 7.2 335 4.7 102280 67
2004-03-26 08:07:01 51°16.19 2°56.087 7.1 333 4.7 102280 67
2004-03-26 08:07:07 51°16.191 2°56.094 6.8 332 4.7 102280 67
2004-03-26 08:07:11 51°16.191 2°56.098 6.9 341 4.7 102280 67
2004-03-26 08:07:16 51°16.192 2°56.103 7 341 4.7 102280 67
2004-03-26 08:07:21 51°16.192 2°56.109 7.4 346 4.7 102280 67
2004-03-26 08:07:27 51°16.193 2°56.115 7.5 347 4.7 102280 67
2004-03-26 08:07:32 51°16.194 2°56.121 7.1 352 4.7 102280 67
2004-03-26 08:07:36 51°16.195 2°56.125 7 352 4.7 102280 67
2004-03-26 08:07:41 51°16.195 2°56.13 7.3 344 4.7 102280 67
2004-03-26 08:07:47 51°16.197 2°56.136 7.6 341 4.7 102280 68
2004-03-26 08:07:52 51°16.197 2°56.142 7 339 4.7 102280 68
2004-03-26 08:07:57 51°16.199 2°56.147 6.7 346 4.7 102290 68
2004-03-26 08:08:01 51°16.199 2°56.151 7.1 342 4.7 102290 68
2004-03-26 08:08:07 51°16.2 2°56.158 7.6 341 4.7 102280 68
2004-03-26 08:08:11 51°16.201 2°56.162 7.4 340 4.7 102280 68
2004-03-26 08:08:16 51°16.202 2°56.167 6.9 344 4.8 102280 68
2004-03-26 08:08:21 51°16.203 2°56.173 7.5 339 4.8 102280 68
2004-03-26 08:08:27 51°16.203 2°56.179 7 339 4.8 102280 68
2004-03-26 08:08:31 51°16.204 2°56.184 7 339 4.8 102280 68
2004-03-26 08:08:36 51°16.205 2°56.189 6.4 343 4.8 102280 68
2004-03-26 08:08:42 51°16.205 2°56.196 6.5 337 4.8 102280 68
2004-03-26 08:08:47 51°16.206 2°56.202 6.2 338 4.7 102290 68
2004-03-26 08:08:52 51°16.206 2°56.207 6.3 345 4.7 102290 68
2004-03-26 08:08:57 51°16.206 2°56.213 6.3 337 4.8 102280 68
2004-03-26 08:09:01 51°16.206 2°56.218 7.2 338 4.8 102280 68
2004-03-26 08:09:07 51°16.207 2°56.225 6.9 350 4.7 102280 68
2004-03-26 08:09:11 51°16.207 2°56.229 8.2 347 4.7 102280 68
2004-03-26 08:09:16 51°16.208 2°56.235 8 347 4.8 102280 68
2004-03-26 08:09:21 51°16.208 2°56.24 7.1 347 4.8 102280 68
2004-03-26 08:09:27 51°16.209 2°56.247 7.5 343 4.7 102270 68
2004-03-26 08:09:32 51°16.209 2°56.253 6.7 344 4.7 102270 68
2004-03-26 08:09:37 51°16.209 2°56.258 6.6 345 4.7 102280 68
2004-03-26 08:09:42 51°16.21 2°56.264 6.1 348 4.7 102280 68
2004-03-26 08:09:47 51°16.21 2°56.27 6.3 345 4.7 102280 67
2004-03-26 08:09:51 51°16.21 2°56.274 7.1 350 4.7 102280 67
2004-03-26 08:09:57 51°16.211 2°56.281 6.7 345 4.7 102290 67
2004-03-26 08:10:01 51°16.211 2°56.285 7.8 355 4.7 102290 67
2004-03-26 08:10:07 51°16.212 2°56.292 8.5 350 4.7 102280 67
2004-03-26 08:10:12 51°16.212 2°56.298 8.6 340 4.7 102280 67
2004-03-26 08:10:17 51°16.213 2°56.303 8.8 343 4.7 102280 67
2004-03-26 08:10:22 51°16.213 2°56.309 9.1 338 4.7 102280 67
2004-03-26 08:10:27 51°16.213 2°56.315 9.3 337 4.7 102280 67
2004-03-26 08:10:32 51°16.213 2°56.321 8.6 337 4.7 102280 67
2004-03-26 08:10:37 51°16.214 2°56.326 8.3 339 4.7 102280 67
2004-03-26 08:10:41 51°16.214 2°56.331 8.7 343 4.7 102280 67
2004-03-26 08:10:47 51°16.214 2°56.338 8.8 336 4.7 102270 67
2004-03-26 08:10:51 51°16.214 2°56.342 8.1 341 4.7 102270 67
2004-03-26 08:10:57 51°16.214 2°56.349 8.2 339 4.7 102270 67
2004-03-26 08:11:01 51°16.214 2°56.354 8.5 337 4.7 102270 67
2004-03-26 08:11:07 51°16.215 2°56.361 8.2 342 4.7 102270 67
2004-03-26 08:11:11 51°16.214 2°56.366 8.1 337 4.7 102270 67
2004-03-26 08:11:17 51°16.214 2°56.372 7.8 337 4.7 102270 67
2004-03-26 08:11:21 51°16.214 2°56.377 7.3 334 4.7 102270 67
2004-03-26 08:11:27 51°16.214 2°56.384 7.2 330 4.7 102280 67
2004-03-26 08:11:31 51°16.214 2°56.388 7 329 4.7 102280 67
2004-03-26 08:11:36 51°16.214 2°56.394 6.9 326 4.7 102280 67
2004-03-26 08:11:41 51°16.214 2°56.4 7 327 4.7 102280 67
2004-03-26 08:11:47 51°16.213 2°56.407 7.4 324 4.7 102280 67
2004-03-26 08:11:51 51°16.213 2°56.411 7.2 320 4.7 102280 67
2004-03-26 08:11:57 51°16.212 2°56.418 7.3 320 4.7 102280 67
2004-03-26 08:12:01 51°16.211 2°56.423 6.9 324 4.7 102280 67
2004-03-26 08:12:07 51°16.21 2°56.43 6.8 320 4.7 102280 67
2004-03-26 08:12:11 51°16.209 2°56.434 6.3 318 4.7 102280 67
2004-03-26 08:12:16 51°16.207 2°56.44 6.7 318 4.7 102280 67
2004-03-26 08:12:21 51°16.205 2°56.444 6.4 43 4.7 102280 67
2004-03-26 08:12:27 51°16.203 2°56.449 5.9 228 4.7 102280 66
2004-03-26 08:12:32 51°16.2 2°56.453 5.8 310 4.7 102280 66
2004-03-26 08:12:37 51°16.198 2°56.456 5.8 310 4.7 102280 66
2004-03-26 08:12:41 51°16.196 2°56.459 5.6 306 4.7 102280 66
2004-03-26 08:12:47 51°16.194 2°56.462 5.7 302 4.7 102280 66
2004-03-26 08:12:52 51°16.191 2°56.464 7.1 305 4.7 102280 66
2004-03-26 08:12:56 51°16.189 2°56.466 7.2 304 4.7 102280 66
2004-03-26 08:13:01 51°16.186 2°56.468 6.9 298 4.7 102280 66
2004-03-26 08:13:07 51°16.183 2°56.469 6.2 298 4.7 102280 67
2004-03-26 08:13:11 51°16.181 2°56.471 7 300 4.7 102280 67
2004-03-26 08:13:16 51°16.179 2°56.471 6.8 300 4.8 102280 67
2004-03-26 08:13:21 51°16.176 2°56.472 6.7 299 4.8 102280 67
2004-03-26 08:13:27 51°16.173 2°56.473 7.3 297 4.7 102280 67
2004-03-26 08:13:31 51°16.171 2°56.474 6.9 293 4.7 102280 67
2004-03-26 08:13:37 51°16.168 2°56.474 6.1 291 4.7 102280 67
2004-03-26 08:13:41 51°16.166 2°56.474 5.8 286 4.7 102280 67
2004-03-26 08:13:47 51°16.162 2°56.474 6 286 4.7 102280 66
2004-03-26 08:13:51 51°16.16 2°56.474 7.3 286 4.7 102280 66
2004-03-26 08:13:57 51°16.157 2°56.474 7.5 282 4.7 102280 66
2004-03-26 08:14:01 51°16.155 2°56.474 6.7 294 4.7 102280 66
2004-03-26 08:14:05 51°16.153 2°56.473 7 285 4.7 102290 66
2004-03-26 08:14:12 51°16.149 2°56.472 7.3 286 4.7 102290 66
2004-03-26 08:14:17 51°16.147 2°56.472 7.2 280 4.7 102280 66
2004-03-26 08:14:21 51°16.145 2°56.471 7.8 272 4.7 102280 66
2004-03-26 08:14:27 51°16.142 2°56.47 7.5 273 4.7 102280 66
2004-03-26 08:14:31 51°16.139 2°56.469 7.5 272 4.7 102280 66
2004-03-26 08:14:37 51°16.136 2°56.469 7.1 262 4.7 102280 66
2004-03-26 08:14:41 51°16.134 2°56.468 6.9 264 4.7 102280 66
2004-03-26 08:14:47 51°16.13 2°56.468 6 259 4.8 102280 66
2004-03-26 08:14:51 51°16.127 2°56.467 4.9 257 4.8 102280 66
2004-03-26 08:14:57 51°16.123 2°56.466 5.3 254 4.8 102280 67
2004-03-26 08:15:01 51°16.119 2°56.466 5.9 258 4.8 102280 67
2004-03-26 08:15:07 51°16.115 2°56.464 5.4 256 4.8 102280 66
2004-03-26 08:15:11 51°16.111 2°56.463 5.1 256 4.8 102280 66
2004-03-26 08:15:16 51°16.107 2°56.461 5 252 4.7 102290 65
2004-03-26 08:15:21 51°16.103 2°56.459 5.7 246 4.7 102290 65
2004-03-26 08:15:27 51°16.097 2°56.456 5.4 237 4.7 102280 65
2004-03-26 08:15:31 51°16.094 2°56.453 5.6 236 4.7 102280 65
2004-03-26 08:15:37 51°16.088 2°56.449 5.4 236 4.7 102280 65
2004-03-26 08:15:41 51°16.084 2°56.445 5.5 224 4.7 102280 65
2004-03-26 08:15:47 51°16.079 2°56.44 5.3 220 4.7 102290 65
2004-03-26 08:15:51 51°16.076 2°56.436 5.6 217 4.7 102290 65
2004-03-26 08:15:57 51°16.071 2°56.429 4.5 208 4.7 102290 65
2004-03-26 08:16:01 51°16.067 2°56.425 4.3 199 4.7 102290 65
2004-03-26 08:16:07 51°16.063 2°56.417 4.8 210 4.7 102290 65
2004-03-26 08:16:11 51°16.06 2°56.412 3.9 204 4.7 102290 65
2004-03-26 08:16:16 51°16.056 2°56.406 4 197 4.7 102300 65
2004-03-26 08:16:21 51°16.052 2°56.399 3.8 194 4.7 102300 65
2004-03-26 08:16:27 51°16.048 2°56.391 3.7 198 4.6 102300 63
2004-03-26 08:16:31 51°16.045 2°56.386 3.1 196 4.6 102300 63
2004-03-26 08:16:36 51°16.041 2°56.378 2.6 186 4.6 102300 63
2004-03-26 08:16:41 51°16.038 2°56.371 3 179 4.6 102300 63
2004-03-26 08:16:47 51°16.034 2°56.363 2.4 190 4.6 102300 63
2004-03-26 08:16:51 51°16.031 2°56.357 3 185 4.6 102300 63
2004-03-26 08:16:56 51°16.028 2°56.35 2.8 186 4.6 102290 63
2004-03-26 08:17:01 51°16.024 2°56.343 2.7 185 4.6 102290 63
2004-03-26 08:17:07 51°16.021 2°56.335 3.4 177 4.6 102300 64
2004-03-26 08:17:12 51°16.018 2°56.327 3.4 181 4.6 102300 64
2004-03-26 08:17:17 51°16.015 2°56.32 3 172 4.7 102300 64
2004-03-26 08:17:21 51°16.013 2°56.314 3.5 174 4.7 102300 64
2004-03-26 08:17:27 51°16.009 2°56.306 3.8 175 4.7 102300 64
2004-03-26 08:17:31 51°16.007 2°56.3 3.6 175 4.7 102300 64
2004-03-26 08:17:37 51°16.004 2°56.292 3.1 172 4.7 102300 63
2004-03-26 08:17:41 51°16.002 2°56.286 3.9 176 4.7 102300 63
2004-03-26 08:17:47 51°15.998 2°56.277 3.8 169 4.7 102300 63
2004-03-26 08:17:51 51°15.997 2°56.271 3.4 176 4.7 102300 63
2004-03-26 08:17:57 51°15.993 2°56.262 3.8 162 4.7 102300 63
2004-03-26 08:18:01 51°15.992 2°56.256 4.2 168 4.7 102300 63
2004-03-26 08:18:07 51°15.989 2°56.247 4.5 158 4.7 102300 63
2004-03-26 08:18:12 51°15.987 2°56.24 4.2 159 4.7 102300 63
2004-03-26 08:18:15 51°15.985 2°56.235 4.2 154 4.7 102300 63
2004-03-26 08:18:21 51°15.983 2°56.226 4.1 157 4.7 102300 63
2004-03-26 08:18:27 51°15.98 2°56.217 4.1 152 4.7 102300 63
2004-03-26 08:18:31 51°15.979 2°56.211 4.5 146 4.7 102300 63
2004-03-26 08:18:36 51°15.977 2°56.203 4 151 4.7 102300 63
2004-03-26 08:18:41 51°15.975 2°56.195 5.1 153 4.7 102300 63
2004-03-26 08:18:46 51°15.973 2°56.187 4.9 148 4.6 102300 64
2004-03-26 08:18:52 51°15.972 2°56.177 4.3 148 4.6 102300 64
2004-03-26 08:18:57 51°15.97 2°56.17 4 147 4.6 102300 64
2004-03-26 08:19:01 51°15.969 2°56.163 3.8 147 4.6 102300 64
2004-03-26 08:19:07 51°15.967 2°56.154 3.9 145 4.6 102300 64
2004-03-26 08:19:11 51°15.966 2°56.147 4.2 146 4.6 102300 64
2004-03-26 08:19:17 51°15.964 2°56.138 4.6 139 4.6 102310 64
2004-03-26 08:19:21 51°15.963 2°56.131 5 139 4.6 102310 64
2004-03-26 08:19:27 51°15.962 2°56.121 4.7 135 4.5 102300 64
2004-03-26 08:19:31 51°15.961 2°56.115 5.4 136 4.5 102300 64
2004-03-26 08:19:37 51°15.96 2°56.105 4.8 135 4.5 102300 64
2004-03-26 08:19:41 51°15.959 2°56.099 5.1 135 4.5 102300 64
2004-03-26 08:19:47 51°15.958 2°56.089 4.8 132 4.5 102300 65
2004-03-26 08:19:52 51°15.958 2°56.081 4.8 134 4.5 102300 65
2004-03-26 08:19:57 51°15.957 2°56.073 5.2 128 4.5 102310 65
2004-03-26 08:20:01 51°15.956 2°56.067 5.5 119 4.5 102310 65
2004-03-26 08:20:07 51°15.955 2°56.057 5 116 4.5 102300 65
2004-03-26 08:20:11 51°15.955 2°56.051 5.4 115 4.5 102300 65
2004-03-26 08:20:17 51°15.954 2°56.041 6.3 120 4.5 102300 65
2004-03-26 08:20:21 51°15.953 2°56.035 6.4 121 4.5 102300 65
2004-03-26 08:20:27 51°15.953 2°56.025 5.8 124 4.5 102300 65
2004-03-26 08:20:32 51°15.952 2°56.017 5.7 123 4.5 102300 65
2004-03-26 08:20:37 51°15.952 2°56.009 5.8 117 4.5 102300 65
2004-03-26 08:20:41 51°15.951 2°56.003 5.7 116 4.5 102300 65
2004-03-26 08:20:47 51°15.951 2°55.994 5.4 115 4.5 102300 65
2004-03-26 08:20:51 51°15.95 2°55.987 5.4 117 4.5 102300 65
2004-03-26 08:20:56 51°15.95 2°55.979 5.4 114 4.5 102300 65
2004-03-26 08:21:01 51°15.949 2°55.971 5.5 116 4.5 102300 65
2004-03-26 08:21:07 51°15.949 2°55.962 5.8 121 4.5 102310 66
2004-03-26 08:21:11 51°15.949 2°55.956 5.4 119 4.5 102310 66
2004-03-26 08:21:17 51°15.948 2°55.947 5 110 4.5 102300 65
2004-03-26 08:21:21 51°15.948 2°55.94 5.6 113 4.5 102300 65
2004-03-26 08:21:27 51°15.948 2°55.931 5.3 132 4.5 102310 65
2004-03-26 08:21:31 51°15.947 2°55.925 6.1 118 4.5 102310 65
2004-03-26 08:21:36 51°15.947 2°55.917 5.9 115 4.5 102310 65
2004-03-26 08:21:41 51°15.947 2°55.909 5.4 126 4.5 102310 65
2004-03-26 08:21:47 51°15.946 2°55.9 6.3 124 4.5 102300 66
2004-03-26 08:21:52 51°15.946 2°55.892 6.5 118 4.5 102300 66
2004-03-26 08:21:57 51°15.946 2°55.884 6 114 4.6 102300 66
2004-03-26 08:22:01 51°15.946 2°55.878 7.1 120 4.6 102300 66
2004-03-26 08:22:07 51°15.946 2°55.869 6.5 119 4.6 102300 67
2004-03-26 08:22:11 51°15.945 2°55.862 6.6 120 4.6 102300 67
2004-03-26 08:22:17 51°15.945 2°55.853 6.2 114 4.6 102300 68
2004-03-26 08:22:21 51°15.945 2°55.847 6.1 112 4.6 102300 68
2004-03-26 08:22:27 51°15.945 2°55.837 6.2 119 4.6 102310 67
2004-03-26 08:22:31 51°15.946 2°55.831 5.8 112 4.6 102310 67
2004-03-26 08:22:37 51°15.946 2°55.822 6.7 115 4.6 102310 67
2004-03-26 08:22:41 51°15.946 2°55.816 6.1 116 4.6 102310 67
2004-03-26 08:22:45 51°15.946 2°55.809 6.4 112 4.6 102300 67
2004-03-26 08:22:52 51°15.946 2°55.799 5.8 111 4.6 102300 67
2004-03-26 08:22:57 51°15.947 2°55.791 6.2 114 4.6 102310 68
2004-03-26 08:23:01 51°15.947 2°55.785 6 114 4.6 102310 68
2004-03-26 08:23:07 51°15.947 2°55.776 6.3 112 4.6 102310 67
2004-03-26 08:23:11 51°15.948 2°55.77 6.3 115 4.6 102310 67
2004-03-26 08:23:17 51°15.948 2°55.761 6.1 115 4.6 102310 67
2004-03-26 08:23:21 51°15.948 2°55.755 5.8 114 4.6 102310 67
2004-03-26 08:23:27 51°15.948 2°55.746 5.8 113 4.6 102310 67
2004-03-26 08:23:32 51°15.949 2°55.738 3.3 111 4.6 102310 67
2004-03-26 08:23:37 51°15.949 2°55.731 5.1 112 4.6 102310 67
2004-03-26 08:23:41 51°15.949 2°55.725 4.9 109 4.6 102310 67
2004-03-26 08:23:47 51°15.95 2°55.716 5.2 109 4.6 102310 67
2004-03-26 08:23:51 51°15.95 2°55.71 4.9 109 4.6 102310 67
2004-03-26 08:23:57 51°15.951 2°55.701 5.1 108 4.6 102310 67
2004-03-26 08:24:01 51°15.951 2°55.695 5.2 109 4.6 102310 67
2004-03-26 08:24:07 51°15.952 2°55.686 5.1 108 4.6 102310 67
2004-03-26 08:24:11 51°15.952 2°55.68 4.8 106 4.6 102310 67
2004-03-26 08:24:17 51°15.953 2°55.671 5 106 4.6 102300 67
2004-03-26 08:24:21 51°15.954 2°55.665 4.7 103 4.6 102300 67
2004-03-26 08:24:27 51°15.954 2°55.657 4.9 94 4.6 102300 67
2004-03-26 08:24:32 51°15.955 2°55.649 4.9 104 4.6 102300 67
2004-03-26 08:24:37 51°15.956 2°55.642 4.9 101 4.6 102300 68
2004-03-26 08:24:41 51°15.956 2°55.637 5.5 93 4.6 102300 68
2004-03-26 08:24:47 51°15.957 2°55.628 5.2 96 4.6 102300 68
2004-03-26 08:24:51 51°15.958 2°55.622 5.5 96 4.6 102300 68
2004-03-26 08:24:55 51°15.958 2°55.617 4.6 97 4.6 102300 68
2004-03-26 08:25:01 51°15.959 2°55.608 4.9 98 4.6 102300 68
2004-03-26 08:25:07 51°15.96 2°55.6 4.8 92 4.6 102300 69
2004-03-26 08:25:11 51°15.961 2°55.594 5.3 92 4.6 102300 69
2004-03-26 08:25:17 51°15.962 2°55.586 5.8 89 4.6 102300 68
2004-03-26 08:25:21 51°15.962 2°55.58 6 97 4.6 102300 68
2004-03-26 08:25:27 51°15.963 2°55.572 7 98 4.6 102310 69
2004-03-26 08:25:31 51°15.964 2°55.566 6.6 102 4.6 102310 69
2004-03-26 08:25:36 51°15.965 2°55.559 6.4 103 4.6 102300 69
2004-03-26 08:25:41 51°15.966 2°55.552 5.9 106 4.6 102300 69
2004-03-26 08:25:47 51°15.967 2°55.543 6 104 4.6 102310 69
2004-03-26 08:25:52 51°15.967 2°55.536 6.3 104 4.6 102310 69
2004-03-26 08:25:57 51°15.968 2°55.529 6.3 99 4.6 102300 68
2004-03-26 08:26:01 51°15.969 2°55.523 7.1 104 4.6 102300 68
2004-03-26 08:26:07 51°15.97 2°55.515 7.3 93 4.6 102300 68
2004-03-26 08:26:11 51°15.97 2°55.509 6.7 101 4.6 102300 68
2004-03-26 08:26:15 51°15.971 2°55.503 6.6 96 4.6 102310 68
2004-03-26 08:26:21 51°15.972 2°55.494 6.5 98 4.6 102310 68
2004-03-26 08:26:27 51°15.973 2°55.486 7.1 96 4.6 102310 68
2004-03-26 08:26:32 51°15.974 2°55.479 6.7 96 4.6 102310 68
2004-03-26 08:26:37 51°15.975 2°55.472 6.3 99 4.6 102300 69
2004-03-26 08:26:41 51°15.976 2°55.466 6.9 94 4.6 102300 69
2004-03-26 08:26:47 51°15.977 2°55.457 6.8 96 4.6 102310 69
2004-03-26 08:26:51 51°15.977 2°55.452 6.9 99 4.6 102310 69
2004-03-26 08:26:57 51°15.978 2°55.443 6.6 99 4.6 102310 69
2004-03-26 08:27:01 51°15.979 2°55.438 6.5 102 4.6 102310 69
2004-03-26 08:27:07 51°15.98 2°55.429 6.6 102 4.7 102310 69
2004-03-26 08:27:12 51°15.981 2°55.422 6.4 98 4.7 102310 69
2004-03-26 08:27:16 51°15.982 2°55.417 6.2 97 4.7 102310 69
2004-03-26 08:27:21 51°15.983 2°55.41 5.7 93 4.7 102310 69
2004-03-26 08:27:27 51°15.984 2°55.401 6.3 92 4.6 102300 68
2004-03-26 08:27:32 51°15.985 2°55.395 6.2 87 4.6 102300 68
2004-03-26 08:27:37 51°15.987 2°55.388 6.3 93 4.6 102310 68
2004-03-26 08:27:41 51°15.987 2°55.382 6.7 92 4.6 102310 68
2004-03-26 08:27:47 51°15.989 2°55.374 6.2 93 4.6 102300 69
2004-03-26 08:27:51 51°15.99 2°55.368 6.1 88 4.6 102300 69
2004-03-26 08:27:56 51°15.991 2°55.362 5.9 79 4.6 102310 69
2004-03-26 08:28:02 51°15.993 2°55.354 6.9 83 4.6 102310 69
2004-03-26 08:28:07 51°15.994 2°55.347 5.7 81 4.7 102310 69
2004-03-26 08:28:12 51°15.995 2°55.341 6.9 87 4.7 102310 69
2004-03-26 08:28:17 51°15.997 2°55.334 6.2 80 4.7 102300 69
2004-03-26 08:28:21 51°15.997 2°55.328 6.9 82 4.7 102300 69
2004-03-26 08:28:25 51°15.998 2°55.323 7.6 84 4.7 102310 69
2004-03-26 08:28:32 51°16 2°55.314 7.9 83 4.7 102310 69
2004-03-26 08:28:37 51°16.001 2°55.307 8 88 4.7 102310 69
2004-03-26 08:28:42 51°16.002 2°55.3 7.8 88 4.7 102310 69
2004-03-26 08:28:47 51°16.003 2°55.293 7.8 89 4.7 102300 69
2004-03-26 08:28:52 51°16.004 2°55.286 7.2 88 4.7 102300 69
2004-03-26 08:28:57 51°16.005 2°55.279 7.5 89 4.7 102310 69
2004-03-26 08:29:01 51°16.005 2°55.273 7.4 87 4.7 102310 69
2004-03-26 08:29:07 51°16.006 2°55.265 7.3 88 4.6 102310 68
2004-03-26 08:29:11 51°16.007 2°55.259 6.6 93 4.6 102310 68
2004-03-26 08:29:16 51°16.008 2°55.252 6.6 93 4.6 102300 68
2004-03-26 08:29:21 51°16.009 2°55.245 6.2 97 4.6 102300 68
2004-03-26 08:29:27 51°16.01 2°55.237 6.1 94 4.6 102310 68
2004-03-26 08:29:32 51°16.011 2°55.23 7.2 91 4.6 102310 68
2004-03-26 08:29:37 51°16.012 2°55.223 7 90 4.6 102310 68
2004-03-26 08:29:41 51°16.012 2°55.217 6.7 92 4.6 102310 68
2004-03-26 08:29:47 51°16.013 2°55.209 7.1 81 4.6 102300 68
2004-03-26 08:29:51 51°16.014 2°55.203 8 86 4.6 102300 68
2004-03-26 08:29:57 51°16.015 2°55.194 7.9 85 4.6 102300 68
2004-03-26 08:30:01 51°16.016 2°55.188 8.1 84 4.6 102300 68
2004-03-26 08:30:07 51°16.017 2°55.18 7.9 83 4.5 102300 68
2004-03-26 08:30:11 51°16.017 2°55.174 7.6 88 4.5 102300 68
2004-03-26 08:30:16 51°16.018 2°55.167 7.5 85 4.5 102310 68
2004-03-26 08:30:21 51°16.019 2°55.16 7.7 87 4.5 102310 68
2004-03-26 08:30:27 51°16.02 2°55.152 7.5 92 4.5 102310 67
2004-03-26 08:30:31 51°16.02 2°55.146 6.9 96 4.5 102310 67
2004-03-26 08:30:36 51°16.021 2°55.139 7.2 93 4.5 102310 67
2004-03-26 08:30:42 51°16.022 2°55.131 6.7 96 4.5 102310 67
2004-03-26 08:30:47 51°16.023 2°55.124 6.9 92 4.4 102310 66
2004-03-26 08:30:51 51°16.024 2°55.118 6.7 91 4.4 102310 66
2004-03-26 08:30:56 51°16.025 2°55.111 6.2 93 4.5 102310 66
2004-03-26 08:31:01 51°16.026 2°55.104 6.8 99 4.5 102310 66
2004-03-26 08:31:07 51°16.027 2°55.096 6.7 94 4.4 102310 66
2004-03-26 08:31:11 51°16.028 2°55.09 6.7 92 4.4 102310 66
2004-03-26 08:31:17 51°16.029 2°55.082 7.2 91 4.4 102310 66
2004-03-26 08:31:21 51°16.029 2°55.076 7.2 102 4.4 102310 66
2004-03-26 08:31:25 51°16.03 2°55.07 6.5 101 4.5 102310 67
2004-03-26 08:31:32 51°16.031 2°55.06 6.9 102 4.5 102310 67
2004-03-26 08:31:37 51°16.032 2°55.053 6.9 103 4.4 102310 67
2004-03-26 08:31:41 51°16.032 2°55.047 6.4 106 4.4 102310 67
2004-03-26 08:31:47 51°16.034 2°55.039 6.6 111 4.4 102310 66
2004-03-26 08:31:51 51°16.034 2°55.033 6.4 108 4.4 102310 66
2004-03-26 08:31:56 51°16.035 2°55.026 6.4 106 4.5 102310 67
2004-03-26 08:32:01 51°16.036 2°55.019 6.4 106 4.5 102310 67
2004-03-26 08:32:07 51°16.037 2°55.01 6.6 102 4.5 102310 67
2004-03-26 08:32:12 51°16.038 2°55.003 6.4 106 4.5 102310 67
2004-03-26 08:32:17 51°16.039 2°54.996 6.9 99 4.5 102310 66
2004-03-26 08:32:21 51°16.04 2°54.99 6.5 102 4.5 102310 66
2004-03-26 08:32:27 51°16.041 2°54.982 6.8 102 4.5 102310 66
2004-03-26 08:32:31 51°16.041 2°54.976 6 104 4.5 102310 66
2004-03-26 08:32:37 51°16.043 2°54.968 5.9 109 4.5 102310 66
2004-03-26 08:32:41 51°16.044 2°54.962 6.6 106 4.5 102310 66
2004-03-26 08:32:47 51°16.044 2°54.953 6.7 102 4.5 102320 66
2004-03-26 08:32:51 51°16.045 2°54.948 6.4 107 4.5 102320 66
2004-03-26 08:32:56 51°16.046 2°54.941 6.5 99 4.5 102310 66
2004-03-26 08:33:01 51°16.047 2°54.934 6.5 107 4.5 102310 66
2004-03-26 08:33:07 51°16.048 2°54.925 5.7 106 4.5 102310 66
2004-03-26 08:33:11 51°16.049 2°54.919 5.3 82 4.5 102310 66
2004-03-26 08:33:17 51°16.05 2°54.911 6.1 88 4.5 102310 66
2004-03-26 08:33:21 51°16.051 2°54.905 5.3 78 4.5 102310 66
2004-03-26 08:33:27 51°16.053 2°54.897 4.9 78 4.5 102310 66
2004-03-26 08:33:31 51°16.054 2°54.892 5.6 79 4.5 102310 66
2004-03-26 08:33:36 51°16.055 2°54.885 5.4 82 4.5 102310 66
2004-03-26 08:33:41 51°16.056 2°54.878 6.4 81 4.5 102310 66
2004-03-26 08:33:47 51°16.057 2°54.869 5.6 79 4.5 102310 66
2004-03-26 08:33:51 51°16.058 2°54.864 4.7 80 4.5 102310 66
2004-03-26 08:33:57 51°16.059 2°54.855 5.2 76 4.5 102310 66
2004-03-26 08:34:01 51°16.06 2°54.849 6.5 81 4.5 102310 66
2004-03-26 08:34:07 51°16.061 2°54.841 7 82 4.5 102310 67
2004-03-26 08:34:11 51°16.062 2°54.835 7.8 86 4.5 102310 67
2004-03-26 08:34:16 51°16.062 2°54.828 8.4 85 4.5 102310 66
2004-03-26 08:34:21 51°16.063 2°54.821 6.4 98 4.5 102310 66
2004-03-26 08:34:27 51°16.064 2°54.812 6.7 100 4.5 102310 66
2004-03-26 08:34:32 51°16.064 2°54.805 6.4 98 4.5 102310 66
2004-03-26 08:34:37 51°16.065 2°54.798 6.5 100 4.5 102310 66
2004-03-26 08:34:41 51°16.065 2°54.792 6 102 4.5 102310 66
2004-03-26 08:34:47 51°16.066 2°54.783 6.4 102 4.5 102310 66
2004-03-26 08:34:51 51°16.066 2°54.777 6.2 100 4.5 102310 66
2004-03-26 08:34:57 51°16.067 2°54.768 6.1 92 4.5 102310 66
2004-03-26 08:35:01 51°16.067 2°54.762 6.4 89 4.5 102310 66
2004-03-26 08:35:07 51°16.068 2°54.754 5.5 91 4.5 102310 67
2004-03-26 08:35:11 51°16.068 2°54.748 5.8 84 4.5 102310 67
2004-03-26 08:35:17 51°16.069 2°54.739 6.3 90 4.5 102310 67
2004-03-26 08:35:21 51°16.07 2°54.733 6.6 93 4.5 102310 67
2004-03-26 08:35:27 51°16.07 2°54.724 6.4 98 4.5 102310 67
2004-03-26 08:35:31 51°16.071 2°54.718 5.9 90 4.5 102310 67
2004-03-26 08:35:37 51°16.071 2°54.709 6.8 96 4.5 102310 67
2004-03-26 08:35:41 51°16.072 2°54.703 6.7 99 4.5 102310 67
2004-03-26 08:35:47 51°16.073 2°54.695 6.7 102 4.6 102310 68
2004-03-26 08:35:52 51°16.073 2°54.687 6.1 105 4.6 102310 68
2004-03-26 08:35:56 51°16.074 2°54.681 6 101 4.6 102310 68
2004-03-26 08:36:01 51°16.074 2°54.674 7 107 4.6 102310 68
2004-03-26 08:36:07 51°16.075 2°54.665 6.6 104 4.6 102310 68
2004-03-26 08:36:11 51°16.075 2°54.658 6.4 111 4.6 102310 68
2004-03-26 08:36:17 51°16.076 2°54.649 6.6 97 4.6 102310 68
2004-03-26 08:36:22 51°16.077 2°54.642 6.2 107 4.6 102310 68
2004-03-26 08:36:27 51°16.077 2°54.635 6.6 100 4.6 102310 68
2004-03-26 08:36:31 51°16.078 2°54.629 6.9 105 4.6 102310 68
2004-03-26 08:36:37 51°16.078 2°54.62 6.6 101 4.6 102310 68
2004-03-26 08:36:41 51°16.079 2°54.614 6.3 103 4.6 102310 68
2004-03-26 08:36:47 51°16.08 2°54.605 6.7 103 4.7 102310 69
2004-03-26 08:36:52 51°16.08 2°54.597 6.3 103 4.7 102310 69
2004-03-26 08:36:57 51°16.081 2°54.589 6 105 4.6 102320 68
2004-03-26 08:37:01 51°16.081 2°54.583 6.1 95 4.6 102320 68
2004-03-26 08:37:07 51°16.082 2°54.574 6.5 98 4.6 102310 67
2004-03-26 08:37:12 51°16.083 2°54.567 6.1 98 4.6 102310 67
2004-03-26 08:37:17 51°16.083 2°54.559 6.2 95 4.6 102320 66
2004-03-26 08:37:21 51°16.084 2°54.553 6 99 4.6 102320 66
2004-03-26 08:37:27 51°16.085 2°54.544 5.9 100 4.6 102310 66
2004-03-26 08:37:32 51°16.085 2°54.537 5.3 98 4.6 102310 66
2004-03-26 08:37:37 51°16.086 2°54.529 5.3 100 4.6 102310 67
2004-03-26 08:37:41 51°16.086 2°54.523 5.5 98 4.6 102310 67
2004-03-26 08:37:45 51°16.087 2°54.517 5.6 96 4.6 102310 67
2004-03-26 08:37:52 51°16.088 2°54.507 5.1 94 4.6 102310 67
2004-03-26 08:37:56 51°16.089 2°54.501 5.5 93 4.6 102310 66
2004-03-26 08:38:01 51°16.089 2°54.493 5.4 95 4.6 102310 66
2004-03-26 08:38:07 51°16.09 2°54.485 5.2 97 4.5 102320 65
2004-03-26 08:38:12 51°16.091 2°54.477 5 93 4.5 102320 65
2004-03-26 08:38:17 51°16.092 2°54.47 4.9 95 4.5 102310 65
2004-03-26 08:38:21 51°16.093 2°54.464 5.6 99 4.5 102310 65
2004-03-26 08:38:27 51°16.094 2°54.455 5.1 87 4.5 102310 65
2004-03-26 08:38:31 51°16.094 2°54.449 6.2 84 4.5 102310 65
2004-03-26 08:38:37 51°16.095 2°54.441 5.9 81 4.5 102310 65
2004-03-26 08:38:41 51°16.096 2°54.435 6.9 90 4.5 102310 65
2004-03-26 08:38:47 51°16.097 2°54.426 7.2 90 4.5 102310 65
2004-03-26 08:38:51 51°16.098 2°54.42 6.9 94 4.5 102310 65
2004-03-26 08:38:57 51°16.099 2°54.412 6.7 96 4.6 102310 65
2004-03-26 08:39:01 51°16.1 2°54.406 7.3 93 4.6 102310 65
2004-03-26 08:39:07 51°16.101 2°54.397 7 91 4.6 102320 66
2004-03-26 08:39:12 51°16.102 2°54.39 6.7 93 4.6 102320 66
2004-03-26 08:39:17 51°16.102 2°54.383 6.5 94 4.6 102310 66